createdAt,value
2023-01-27T00:01:22.365Z,0.16
2023-01-27T00:03:50.518Z,0.18
2023-01-27T00:06:18.894Z,0.20
2023-01-27T00:08:47.319Z,0.22
2023-01-27T00:11:34.636Z,0.23
2023-01-27T00:14:02.781Z,0.25
2023-01-27T00:16:31.449Z,0.17
2023-01-27T00:18:59.716Z,0.19
2023-01-27T00:21:45.361Z,0.21
2023-01-27T00:24:31.601Z,0.25
2023-01-27T00:27:01.695Z,0.28
2023-01-27T00:29:29.877Z,0.30
2023-01-27T00:32:15.463Z,0.29
2023-01-27T00:34:46.100Z,0.26
2023-01-27T00:37:15.546Z,0.26
2023-01-27T00:39:46.882Z,0.30
2023-01-27T00:42:16.667Z,0.30
2023-01-27T00:45:04.913Z,0.29
2023-01-27T00:47:33.657Z,0.30
2023-01-27T00:50:02.118Z,0.30
2023-01-27T00:52:30.506Z,0.31
2023-01-27T00:54:58.561Z,0.31
2023-01-27T00:57:30.838Z,0.31
2023-01-27T00:59:59.950Z,0.29
2023-01-27T01:02:28.553Z,0.25
2023-01-27T01:04:56.697Z,0.23
2023-01-27T01:07:25.280Z,0.21
2023-01-27T01:09:53.615Z,0.21
2023-01-27T01:12:21.987Z,0.20
2023-01-27T01:14:54.058Z,0.20
2023-01-27T01:17:22.436Z,0.21
2023-01-27T01:19:50.737Z,0.19
2023-01-27T01:22:19.173Z,0.21
2023-01-27T01:24:47.336Z,0.23
2023-01-27T01:27:15.773Z,0.24
2023-01-27T01:29:43.906Z,0.27
2023-01-27T01:32:13.654Z,0.30
2023-01-27T01:34:41.494Z,0.32
2023-01-27T01:37:09.882Z,0.30
2023-01-27T01:39:38.078Z,0.28
2023-01-27T01:42:06.583Z,0.23
2023-01-27T01:44:34.703Z,0.17
2023-01-27T01:47:03.087Z,0.19
2023-01-27T01:49:36.455Z,0.24
2023-01-27T01:52:10.833Z,0.26
2023-01-27T01:54:44.348Z,0.22
2023-01-27T01:57:18.007Z,0.26
2023-01-27T01:59:50.992Z,0.26
2023-01-27T02:02:26.119Z,0.32
2023-01-27T02:05:01.956Z,0.28
2023-01-27T02:07:37.240Z,0.30
2023-01-27T02:10:05.902Z,0.18
2023-01-27T02:12:34.301Z,0.19
2023-01-27T02:15:02.524Z,0.20
2023-01-27T02:17:31.034Z,0.23
2023-01-27T02:20:08.842Z,0.33
2023-01-27T02:22:44.783Z,0.37
2023-01-27T02:25:21.161Z,0.35
2023-01-27T02:27:51.124Z,0.28
2023-01-27T02:30:20.057Z,-0.18
2023-01-27T02:32:48.505Z,0.17
2023-01-27T02:35:31.970Z,0.23
2023-01-27T02:38:01.250Z,0.27
2023-01-27T02:40:31.972Z,0.32
2023-01-27T02:43:03.007Z,0.29
2023-01-27T02:45:31.542Z,0.26
2023-01-27T02:48:02.673Z,0.30
2023-01-27T02:50:31.137Z,0.34
2023-01-27T02:52:59.608Z,0.34
2023-01-27T02:55:27.836Z,0.39
2023-01-27T02:57:56.341Z,0.39
2023-01-27T03:00:26.877Z,0.41
2023-01-27T03:02:55.351Z,0.39
2023-01-27T03:05:23.504Z,0.40
2023-01-27T03:07:52.284Z,0.39
2023-01-27T03:10:20.764Z,0.32
2023-01-27T03:12:49.141Z,0.33
2023-01-27T03:15:34.657Z,0.37
2023-01-27T03:18:17.367Z,0.31
2023-01-27T03:20:47.672Z,0.29
2023-01-27T03:23:18.545Z,0.29
2023-01-27T03:25:49.189Z,0.30
2023-01-27T03:28:17.611Z,0.28
2023-01-27T03:31:40.813Z,0.24
2023-01-27T03:34:10.695Z,0.23
2023-01-27T03:36:56.129Z,0.24
2023-01-27T03:39:42.233Z,0.23
2023-01-27T03:42:28.010Z,0.26
2023-01-27T03:45:14.225Z,0.23
2023-01-27T03:47:42.620Z,0.32
2023-01-27T03:50:19.310Z,0.31
2023-01-27T03:53:03.344Z,0.32
2023-01-27T03:55:32.269Z,0.36
2023-01-27T03:58:18.173Z,0.38
2023-01-27T04:00:47.715Z,0.21
2023-01-27T04:03:33.215Z,0.33
2023-01-27T04:06:24.371Z,0.28
2023-01-27T04:08:52.905Z,0.33
2023-01-27T04:11:39.324Z,0.38
2023-01-27T04:14:08.628Z,0.34
2023-01-27T04:16:37.993Z,0.40
2023-01-27T04:19:07.745Z,0.23
2023-01-27T04:21:38.036Z,0.43
2023-01-27T04:24:08.869Z,0.48
2023-01-27T04:26:38.580Z,0.48
2023-01-27T04:29:07.540Z,0.48
2023-01-27T04:31:35.897Z,0.50
2023-01-27T04:34:06.856Z,0.39
2023-01-27T04:36:35.792Z,0.61
2023-01-27T04:39:05.447Z,0.64
2023-01-27T04:41:33.843Z,0.88
2023-01-27T04:44:02.891Z,0.90
2023-01-27T04:46:31.480Z,1.00
2023-01-27T04:48:59.811Z,1.04
2023-01-27T04:51:28.637Z,1.13
2023-01-27T04:53:57.326Z,1.31
2023-01-27T04:56:32.020Z,1.37
2023-01-27T04:59:01.637Z,1.46
2023-01-27T05:01:31.037Z,1.44
2023-01-27T05:03:59.541Z,1.51
2023-01-27T05:06:28.762Z,1.55
2023-01-27T05:08:57.754Z,1.54
2023-01-27T05:11:27.460Z,1.57
2023-01-27T05:13:55.559Z,1.64
2023-01-27T05:16:25.588Z,1.63
2023-01-27T05:18:54.735Z,1.63
2023-01-27T05:21:25.337Z,1.61
2023-01-27T05:23:53.501Z,1.64
2023-01-27T05:26:24.323Z,1.65
2023-01-27T05:28:55.666Z,1.63
2023-01-27T05:31:26.370Z,1.63
2023-01-27T05:33:56.173Z,1.63
2023-01-27T05:36:26.201Z,1.59
2023-01-27T05:38:55.260Z,1.39
2023-01-27T05:41:24.616Z,1.68
2023-01-27T05:43:56.466Z,1.62
2023-01-27T05:46:27.050Z,1.60
2023-01-27T05:48:56.770Z,1.63
2023-01-27T05:51:30.363Z,1.64
2023-01-27T05:53:58.956Z,1.62
2023-01-27T05:56:27.691Z,1.63
2023-01-27T05:58:58.417Z,1.49
2023-01-27T06:01:29.368Z,1.57
2023-01-27T06:03:57.746Z,1.60
2023-01-27T06:06:27.827Z,1.14
2023-01-27T06:08:55.960Z,1.56
2023-01-27T06:11:25.366Z,1.52
2023-01-27T06:13:57.135Z,1.51
2023-01-27T06:16:27.100Z,1.45
2023-01-27T06:18:55.246Z,1.48
2023-01-27T06:21:26.388Z,1.45
2023-01-27T06:23:54.550Z,1.48
2023-01-27T06:26:22.968Z,1.52
2023-01-27T06:28:51.178Z,1.51
2023-01-27T06:31:22.510Z,1.45
2023-01-27T06:33:52.904Z,1.50
2023-01-27T06:36:23.349Z,1.48
2023-01-27T06:38:52.319Z,1.45
2023-01-27T06:41:20.920Z,1.45
2023-01-27T06:43:49.374Z,1.49
2023-01-27T06:46:18.133Z,1.48
2023-01-27T06:48:49.016Z,1.46
2023-01-27T06:51:18.910Z,1.45
2023-01-27T06:53:47.005Z,1.39
2023-01-27T06:56:17.428Z,1.45
2023-01-27T06:58:48.006Z,1.43
2023-01-27T07:01:16.473Z,1.45
2023-01-27T07:03:45.226Z,1.48
2023-01-27T07:06:17.153Z,1.39
2023-01-27T07:08:47.529Z,1.48
2023-01-27T07:11:15.950Z,1.44
2023-01-27T07:13:47.047Z,1.42
2023-01-27T07:16:15.490Z,1.40
2023-01-27T07:18:46.585Z,1.36
2023-01-27T07:21:15.279Z,1.42
2023-01-27T07:23:43.576Z,1.40
2023-01-27T07:26:24.621Z,1.42
2023-01-27T07:28:54.000Z,1.37
2023-01-27T07:31:22.642Z,1.29
2023-01-27T07:33:50.900Z,1.35
2023-01-27T07:36:19.297Z,1.38
2023-01-27T07:38:50.864Z,1.40
2023-01-27T07:41:22.961Z,1.42
2023-01-27T07:43:52.459Z,1.37
2023-01-27T07:46:21.145Z,1.30
2023-01-27T07:48:49.263Z,1.39
2023-01-27T07:51:17.844Z,1.39
2023-01-27T07:53:45.955Z,1.41
2023-01-27T07:56:14.699Z,1.45
2023-01-27T07:58:44.572Z,1.44
2023-01-27T08:01:14.232Z,1.47
2023-01-27T08:03:42.281Z,1.46
2023-01-27T08:06:13.771Z,1.30
2023-01-27T08:08:41.925Z,1.43
2023-01-27T08:11:13.480Z,1.45
2023-01-27T08:13:45.729Z,1.51
2023-01-27T08:16:15.791Z,1.44
2023-01-27T08:18:43.980Z,1.44
2023-01-27T08:21:14.015Z,1.54
2023-01-27T08:23:42.422Z,1.60
2023-01-27T08:26:10.937Z,1.69
2023-01-27T08:28:40.884Z,1.21
2023-01-27T08:31:14.253Z,1.53
2023-01-27T08:33:44.024Z,1.65
2023-01-27T08:36:14.664Z,1.73
2023-01-27T08:38:43.848Z,1.80
2023-01-27T08:41:14.163Z,1.71
2023-01-27T08:43:42.567Z,1.76
2023-01-27T08:46:13.002Z,1.67
2023-01-27T08:48:42.071Z,1.62
2023-01-27T08:51:13.300Z,1.65
2023-01-27T08:53:41.533Z,1.53
2023-01-27T08:56:15.525Z,1.54
2023-01-27T08:58:48.485Z,1.52
2023-01-27T09:01:21.675Z,1.56
2023-01-27T09:03:50.335Z,1.18
2023-01-27T09:06:19.299Z,1.41
2023-01-27T09:09:11.214Z,1.31
2023-01-27T09:11:42.877Z,1.35
2023-01-27T09:14:11.942Z,1.44
2023-01-27T09:16:44.836Z,1.14
2023-01-27T09:19:13.607Z,1.42
2023-01-27T09:21:42.167Z,1.54
2023-01-27T09:24:11.510Z,1.64
2023-01-27T09:26:41.007Z,1.71
2023-01-27T09:29:09.124Z,1.74
2023-01-27T09:31:37.649Z,1.70
2023-01-27T09:34:07.215Z,1.67
2023-01-27T09:36:41.841Z,1.68
2023-01-27T09:39:10.474Z,1.49
2023-01-27T09:41:56.814Z,1.48
2023-01-27T09:44:44.159Z,1.42
2023-01-27T09:47:39.070Z,1.51
2023-01-27T09:50:37.099Z,1.68
2023-01-27T09:54:04.242Z,1.67
2023-01-27T09:56:51.617Z,1.69
2023-01-27T09:59:32.608Z,1.80
2023-01-27T10:02:12.151Z,1.96
2023-01-27T10:05:12.966Z,2.06
2023-01-27T10:08:01.330Z,2.30
2023-01-27T10:10:45.291Z,2.19
2023-01-27T10:13:22.843Z,2.28
2023-01-27T10:16:05.140Z,2.33
2023-01-27T10:18:51.920Z,2.31
2023-01-27T10:21:29.893Z,2.32
2023-01-27T10:24:09.102Z,2.03
2023-01-27T10:26:44.602Z,1.94
2023-01-27T10:29:22.634Z,2.10
2023-01-27T10:31:58.040Z,2.09
2023-01-27T10:34:31.703Z,2.09
2023-01-27T10:37:13.777Z,2.12
2023-01-27T10:39:49.025Z,2.28
2023-01-27T10:42:30.118Z,2.34
2023-01-27T10:45:11.864Z,2.10
2023-01-27T10:47:52.825Z,2.40
2023-01-27T10:50:24.679Z,2.36
2023-01-27T10:52:59.069Z,2.27
2023-01-27T10:55:37.667Z,2.40
2023-01-27T10:58:14.421Z,2.52
2023-01-27T11:03:41.529Z,2.35
2023-01-27T11:06:16.347Z,2.09
2023-01-27T11:08:49.318Z,2.18
2023-01-27T11:11:38.402Z,2.02
2023-01-27T11:14:13.026Z,2.02
2023-01-27T11:16:48.164Z,1.69
2023-01-27T11:19:28.812Z,1.83
2023-01-27T11:22:07.685Z,1.41
2023-01-27T11:24:47.142Z,2.03
2023-01-27T11:27:37.849Z,2.30
2023-01-27T11:30:16.946Z,2.39
2023-01-27T11:32:55.712Z,2.00
2023-01-27T11:35:25.112Z,1.89
2023-01-27T11:38:00.669Z,1.75
2023-01-27T11:40:39.047Z,1.66
2023-01-27T11:43:08.019Z,1.71
2023-01-27T11:45:39.061Z,1.62
2023-01-27T11:48:12.589Z,1.80
2023-01-27T11:50:46.663Z,1.73
2023-01-27T11:53:21.704Z,1.85
2023-01-27T11:55:54.418Z,1.98
2023-01-27T11:58:26.926Z,1.99
2023-01-27T12:01:00.917Z,1.82
2023-01-27T12:03:43.379Z,1.54
2023-01-27T12:06:16.834Z,1.35
2023-01-27T12:08:47.183Z,1.05
2023-01-27T12:11:20.322Z,1.42
2023-01-27T12:13:54.370Z,1.75
2023-01-27T12:16:28.527Z,1.86
2023-01-27T12:19:02.867Z,1.80
2023-01-27T12:21:46.926Z,1.68
2023-01-27T12:24:25.968Z,1.56
2023-01-27T12:26:56.866Z,1.42
2023-01-27T12:29:29.231Z,1.36
2023-01-27T12:32:01.748Z,1.24
2023-01-27T12:34:34.674Z,1.32
2023-01-27T12:37:07.489Z,1.24
2023-01-27T12:39:44.610Z,1.20
2023-01-27T12:42:36.315Z,1.13
2023-01-27T12:45:23.046Z,1.11
2023-01-27T12:48:20.977Z,1.25
2023-01-27T12:50:58.161Z,1.14
2023-01-27T12:53:28.248Z,1.27
2023-01-27T12:56:00.755Z,1.18
2023-01-27T12:58:32.502Z,1.23
2023-01-27T13:01:02.968Z,1.47
2023-01-27T13:03:39.661Z,1.59
2023-01-27T13:06:08.547Z,1.41
2023-01-27T13:08:41.790Z,1.29
2023-01-27T13:11:10.137Z,1.39
2023-01-27T13:13:39.017Z,1.09
2023-01-27T13:16:26.087Z,1.33
2023-01-27T13:18:58.483Z,1.20
2023-01-27T13:21:30.889Z,1.22
2023-01-27T13:24:03.148Z,1.32
2023-01-27T13:26:33.932Z,1.32
2023-01-27T13:29:11.924Z,1.34
2023-01-27T13:31:45.828Z,1.33
2023-01-27T13:34:25.229Z,1.31
2023-01-27T13:36:58.426Z,1.31
2023-01-27T13:39:44.815Z,1.17
2023-01-27T13:42:20.074Z,1.04
2023-01-27T13:44:52.299Z,1.01
2023-01-27T13:47:24.765Z,0.84
2023-01-27T13:49:59.151Z,0.70
2023-01-27T13:52:27.623Z,0.75
2023-01-27T13:54:56.591Z,0.81
2023-01-27T13:57:42.109Z,0.88
2023-01-27T14:00:20.698Z,0.91
2023-01-27T14:03:16.402Z,0.90
2023-01-27T14:06:05.309Z,1.02
2023-01-27T14:08:54.319Z,0.84
2023-01-27T14:11:32.064Z,1.01
2023-01-27T14:14:22.948Z,0.97
2023-01-27T14:17:04.398Z,0.90
2023-01-27T14:19:41.198Z,0.84
2023-01-27T14:22:18.893Z,0.90
2023-01-27T14:24:53.991Z,0.97
2023-01-27T14:27:27.799Z,0.83
2023-01-27T14:30:07.473Z,0.70
2023-01-27T14:32:40.724Z,0.72
2023-01-27T14:35:27.127Z,0.62
2023-01-27T14:38:09.876Z,0.59
2023-01-27T14:40:44.251Z,0.57
2023-01-27T14:43:21.625Z,0.61
2023-01-27T14:45:57.130Z,0.60
2023-01-27T14:48:42.875Z,0.61
2023-01-27T14:51:22.405Z,0.59
2023-01-27T14:54:06.298Z,0.50
2023-01-27T14:56:45.850Z,0.41
2023-01-27T14:59:26.989Z,0.48
2023-01-27T15:02:02.814Z,0.22
2023-01-27T15:04:38.499Z,0.48
2023-01-27T15:07:17.753Z,0.39
2023-01-27T15:10:02.975Z,0.36
2023-01-27T15:12:54.192Z,0.43
2023-01-27T15:16:02.370Z,0.48
2023-01-27T15:19:09.932Z,0.42
2023-01-27T15:22:11.445Z,0.47
2023-01-27T15:25:18.327Z,0.33
2023-01-27T15:27:49.764Z,0.42
2023-01-27T15:30:24.350Z,0.33
2023-01-27T15:32:53.189Z,0.41
2023-01-27T15:35:41.679Z,0.36
2023-01-27T15:38:19.941Z,0.43
2023-01-27T15:41:04.889Z,0.39
2023-01-27T15:43:33.721Z,0.43
2023-01-27T15:46:21.331Z,0.27
2023-01-27T15:48:49.941Z,0.46
2023-01-27T15:51:21.475Z,0.46
2023-01-27T15:53:53.831Z,0.44
2023-01-27T15:56:41.303Z,0.41
2023-01-27T15:59:15.994Z,0.38
2023-01-27T16:01:44.435Z,0.41
2023-01-27T16:04:19.323Z,0.41
2023-01-27T16:06:51.931Z,0.38
2023-01-27T16:09:34.223Z,0.44
2023-01-27T16:12:06.641Z,0.26
2023-01-27T16:14:41.101Z,0.44
2023-01-27T16:17:32.939Z,0.48
2023-01-27T16:20:21.026Z,0.41
2023-01-27T16:22:55.115Z,0.41
2023-01-27T16:25:30.245Z,0.36
2023-01-27T16:28:07.502Z,0.49
2023-01-27T16:30:44.653Z,0.47
2023-01-27T16:33:20.049Z,0.45
2023-01-27T16:35:54.239Z,0.46
2023-01-27T16:38:27.123Z,0.43
2023-01-27T16:40:58.159Z,0.47
2023-01-27T16:43:33.199Z,0.50
2023-01-27T16:46:02.774Z,0.45
2023-01-27T16:48:36.034Z,0.44
2023-01-27T16:51:14.890Z,0.45
2023-01-27T16:53:49.087Z,0.40
2023-01-27T16:56:24.190Z,0.44
2023-01-27T16:58:58.118Z,0.44
2023-01-27T17:01:30.852Z,0.45
2023-01-27T17:04:14.030Z,0.46
2023-01-27T17:06:48.346Z,0.27
2023-01-27T17:09:24.584Z,0.52
2023-01-27T17:11:54.292Z,0.49
2023-01-27T17:14:31.944Z,0.40
2023-01-27T17:17:02.773Z,0.46
2023-01-27T17:19:33.844Z,0.40
2023-01-27T17:22:03.686Z,0.50
2023-01-27T17:24:34.135Z,0.32
2023-01-27T17:27:05.725Z,0.47
2023-01-27T17:29:40.094Z,0.49
2023-01-27T17:32:20.873Z,0.45
2023-01-27T17:34:50.665Z,0.39
2023-01-27T17:37:21.342Z,0.40
2023-01-27T17:39:55.460Z,0.46
2023-01-27T17:42:26.689Z,0.41
2023-01-27T17:44:56.375Z,0.36
2023-01-27T17:47:25.176Z,0.42
2023-01-27T17:49:53.316Z,0.43
2023-01-27T17:52:25.034Z,0.48
2023-01-27T17:54:53.450Z,0.40
2023-01-27T17:57:24.058Z,0.49
2023-01-27T18:00:01.926Z,0.50
2023-01-27T18:02:34.545Z,0.51
2023-01-27T18:05:05.984Z,0.47
2023-01-27T18:07:35.715Z,0.41
2023-01-27T18:10:17.026Z,0.44
2023-01-27T18:12:49.727Z,0.11
2023-01-27T18:15:42.668Z,0.46
2023-01-27T18:18:23.879Z,0.43
2023-01-27T18:21:04.096Z,0.36
2023-01-27T18:23:35.567Z,0.37
2023-01-27T18:26:07.679Z,0.43
2023-01-27T18:28:39.638Z,0.46
2023-01-27T18:31:18.503Z,0.47
2023-01-27T18:33:47.645Z,0.48
2023-01-27T18:36:24.628Z,0.43
2023-01-27T18:38:53.372Z,0.43
2023-01-27T18:41:27.319Z,0.34
2023-01-27T18:43:56.343Z,0.12
2023-01-27T18:46:28.112Z,0.25
2023-01-27T18:48:59.881Z,0.28
2023-01-27T18:51:28.162Z,0.32
2023-01-27T18:53:56.547Z,0.35
2023-01-27T18:56:24.724Z,0.26
2023-01-27T18:58:54.176Z,0.27
2023-01-27T19:01:24.674Z,0.32
2023-01-27T19:03:58.504Z,0.35
2023-01-27T19:06:27.409Z,0.34
2023-01-27T19:08:55.850Z,0.27
2023-01-27T19:11:24.086Z,0.34
2023-01-27T19:13:52.542Z,0.31
2023-01-27T19:16:20.766Z,0.36
2023-01-27T19:18:50.178Z,0.26
2023-01-27T19:21:19.722Z,0.44
2023-01-27T19:23:49.709Z,0.34
2023-01-27T19:26:20.259Z,0.28
2023-01-27T19:28:51.596Z,0.14
2023-01-27T19:31:19.952Z,-0.02
2023-01-27T19:33:48.589Z,-0.09
2023-01-27T19:36:23.746Z,-0.20
2023-01-27T19:38:56.756Z,-0.29
2023-01-27T19:41:25.252Z,-0.31
2023-01-27T19:43:53.969Z,-0.37
2023-01-27T19:46:23.648Z,-0.41
2023-01-27T19:48:52.903Z,-0.47
2023-01-27T19:51:22.489Z,-0.59
2023-01-27T19:53:51.357Z,-0.58
2023-01-27T19:56:21.917Z,-0.59
2023-01-27T19:58:53.566Z,-0.57
2023-01-27T20:01:26.793Z,-0.65
2023-01-27T20:03:56.169Z,-0.67
2023-01-27T20:06:27.928Z,-0.71
2023-01-27T20:08:59.224Z,-0.69
2023-01-27T20:11:36.403Z,-0.71
2023-01-27T20:14:07.638Z,-0.73
2023-01-27T20:16:37.189Z,-0.73
2023-01-27T20:19:05.902Z,-0.74
2023-01-27T20:21:36.098Z,-0.76
2023-01-27T20:24:04.987Z,-0.78
2023-01-27T20:26:33.273Z,-0.83
2023-01-27T20:29:02.260Z,-0.79
2023-01-27T20:31:30.735Z,-0.76
2023-01-27T20:34:00.750Z,-0.77
2023-01-27T20:36:29.107Z,-0.77
2023-01-27T20:38:59.267Z,-0.79
2023-01-27T20:41:27.506Z,-0.76
2023-01-27T20:43:56.951Z,-0.76
2023-01-27T20:46:25.744Z,-0.80
2023-01-27T20:48:56.316Z,-0.77
2023-01-27T20:51:24.477Z,-0.84
2023-01-27T20:53:53.591Z,-0.89
2023-01-27T20:56:24.550Z,-0.86
2023-01-27T20:58:54.449Z,-0.86
2023-01-27T21:01:24.301Z,-1.22
2023-01-27T21:03:52.792Z,-0.89
2023-01-27T21:06:21.981Z,-0.88
2023-01-27T21:08:50.322Z,-0.94
2023-01-27T21:11:20.637Z,-0.89
2023-01-27T21:13:52.427Z,-0.88
2023-01-27T21:16:20.613Z,-1.02
2023-01-27T21:18:49.350Z,-0.86
2023-01-27T21:21:24.244Z,-0.85
2023-01-27T21:23:53.006Z,-0.83
2023-01-27T21:26:21.517Z,-1.09
2023-01-27T21:28:51.939Z,-0.83
2023-01-27T21:31:22.170Z,-0.83
2023-01-27T21:33:51.415Z,-0.83
2023-01-27T21:36:20.580Z,-0.85
2023-01-27T21:38:53.013Z,-0.83
2023-01-27T21:41:40.509Z,-0.87
2023-01-27T21:44:35.476Z,-0.86
2023-01-27T21:47:04.216Z,-0.88
2023-01-27T21:49:56.262Z,-1.19
2023-01-27T21:52:25.901Z,-1.00
2023-01-27T21:54:54.399Z,-0.97
2023-01-27T21:57:22.697Z,-0.93
2023-01-27T21:59:52.839Z,-0.92
2023-01-27T22:02:23.553Z,-0.98
2023-01-27T22:04:52.139Z,-1.01
2023-01-27T22:07:20.361Z,-0.98
2023-01-27T22:09:49.003Z,-1.07
2023-01-27T22:12:17.569Z,-1.02
2023-01-27T22:14:46.240Z,-1.12
2023-01-27T22:17:17.367Z,-1.60
2023-01-27T22:19:47.292Z,-1.04
2023-01-27T22:22:15.410Z,-1.04
2023-01-27T22:24:44.240Z,-1.03
2023-01-27T22:27:12.358Z,-1.03
2023-01-27T22:29:41.037Z,-1.01
2023-01-27T22:32:09.389Z,-1.06
2023-01-27T22:34:39.590Z,-1.14
2023-01-27T22:37:08.099Z,-1.11
2023-01-27T22:39:38.007Z,-1.12
2023-01-27T22:42:06.272Z,-1.17
2023-01-27T22:44:34.682Z,-1.12
2023-01-27T22:47:02.905Z,-1.12
2023-01-27T22:49:31.426Z,-1.08
2023-01-27T22:52:01.613Z,-1.24
2023-01-27T22:54:30.015Z,-1.14
2023-01-27T22:57:00.787Z,-1.08
2023-01-27T22:59:29.820Z,-1.16
2023-01-27T23:01:57.922Z,-1.11
2023-01-27T23:04:26.534Z,-1.12
2023-01-27T23:06:54.971Z,-1.15
2023-01-27T23:09:24.774Z,-1.16
2023-01-27T23:11:53.519Z,-1.14
2023-01-27T23:14:21.949Z,-1.18
2023-01-27T23:16:52.887Z,-1.15
2023-01-27T23:19:24.598Z,-1.15
2023-01-27T23:21:53.301Z,-1.15
2023-01-27T23:24:21.927Z,-1.15
2023-01-27T23:26:51.797Z,-1.20
2023-01-27T23:29:25.003Z,-1.16
2023-01-27T23:31:54.136Z,-1.12
2023-01-27T23:34:23.012Z,-1.27
2023-01-27T23:36:51.371Z,-1.15
2023-01-27T23:39:20.035Z,-1.15
2023-01-27T23:41:48.543Z,-1.22
2023-01-27T23:44:19.197Z,-1.14
2023-01-27T23:46:47.399Z,-1.15
2023-01-27T23:49:15.813Z,-1.18
2023-01-27T23:51:45.270Z,-1.19
2023-01-27T23:54:14.529Z,-1.21
2023-01-27T23:56:42.741Z,-1.29
2023-01-27T23:59:13.199Z,-1.37
